Time;durP1;ratioP1;P1;durP2;ratioP2;P2;SDS_P1;SDS_P2;PMS_P1;PMS_P2;Temp;Humidity;BMP_temperature;BMP_pressure;BME280_temperature;BME280_humidity;BME280_pressure;Samples;Min_cycle;Max_cycle;Signal;HPM_P1;HPM_P2
2023/01/05 00:01:25;;;;;;;3.23;2.93;;;3.70;99.90;;;;;;5119696;27;20539;-48
2023/01/05 00:03:52;;;;;;;6.47;4.33;;;3.80;99.90;;;;;;5123356;27;20549;-48
2023/01/05 00:06:19;;;;;;;6.73;6.07;;;3.90;99.90;;;;;;5114821;27;20479;-47
2023/01/05 00:08:46;;;;;;;6.60;5.83;;;3.80;99.90;;;;;;5118892;27;20524;-48
2023/01/05 00:22:33;;;;;;;5.87;3.70;;;3.70;99.90;;;;;;5128403;27;20495;-47
2023/01/05 00:25:02;;;;;;;2.80;2.60;;;3.80;99.90;;;;;;5108511;27;20498;-48
2023/01/05 00:27:29;;;;;;;4.77;4.37;;;4.00;99.90;;;;;;5114726;28;21111;-48
2023/01/05 00:29:58;;;;;;;4.40;3.60;;;4.00;99.90;;;;;;5112643;28;21016;-49
2023/01/05 00:32:26;;;;;;;4.63;3.60;;;3.70;99.90;;;;;;5109997;28;20475;-49
2023/01/05 00:34:54;;;;;;;4.53;4.10;;;3.90;99.90;;;;;;5107839;28;20503;-52
2023/01/05 00:37:22;;;;;;;5.93;4.10;;;4.00;99.90;;;;;;5120370;28;20432;-48
2023/01/05 00:39:49;;;;;;;3.30;3.00;;;3.70;99.90;;;;;;5129797;28;20451;-47
2023/01/05 00:42:16;;;;;;;2.93;2.70;;;3.60;99.90;;;;;;5129157;27;20473;-47
2023/01/05 00:44:43;;;;;;;1.97;1.70;;;4.00;99.90;;;;;;5120837;27;20548;-47
2023/01/05 00:47:11;;;;;;;3.73;3.30;;;4.30;99.90;;;;;;5127230;27;20932;-48
2023/01/05 00:49:38;;;;;;;4.50;4.10;;;4.20;99.90;;;;;;5128434;27;20475;-48
2023/01/05 00:52:06;;;;;;;5.03;4.47;;;3.80;99.90;;;;;;5128986;27;20444;-48
2023/01/05 00:54:33;;;;;;;4.00;2.17;;;3.40;99.90;;;;;;5125591;27;20645;-47
2023/01/05 00:57:00;;;;;;;2.97;2.40;;;3.70;99.90;;;;;;5127808;27;20514;-47
2023/01/05 00:59:26;;;;;;;5.17;4.13;;;4.00;99.90;;;;;;5129446;28;20532;-47
2023/01/05 01:01:54;;;;;;;6.53;4.53;;;3.70;99.90;;;;;;5128858;27;20886;-50
2023/01/05 01:04:23;;;;;;;7.03;4.73;;;3.20;99.90;;;;;;5125831;27;20542;-48
2023/01/05 01:06:50;;;;;;;5.80;4.47;;;3.40;99.90;;;;;;5129003;27;20821;-48
2023/01/05 01:09:17;;;;;;;6.60;3.27;;;3.60;99.90;;;;;;5126902;27;20524;-48
2023/01/05 01:11:44;;;;;;;3.67;3.27;;;3.80;99.90;;;;;;5130370;27;20474;-48
2023/01/05 01:14:12;;;;;;;5.83;3.77;;;4.00;99.90;;;;;;5124859;27;20837;-49
2023/01/05 01:16:40;;;;;;;5.00;3.33;;;4.10;99.90;;;;;;5112709;27;20456;-51
2023/01/05 01:19:07;;;;;;;6.37;3.37;;;4.20;99.90;;;;;;5118013;27;20446;-49
2023/01/05 01:21:36;;;;;;;4.33;3.70;;;4.10;99.90;;;;;;5133261;27;20873;-48
2023/01/05 01:24:02;;;;;;;4.07;3.77;;;4.00;99.90;;;;;;5133234;27;20581;-49
2023/01/05 01:26:29;;;;;;;4.80;3.90;;;3.80;99.90;;;;;;5115123;27;20528;-48
2023/01/05 01:28:56;;;;;;;6.03;4.17;;;3.60;99.90;;;;;;5113459;28;20537;-48
2023/01/05 01:31:23;;;;;;;4.23;3.87;;;3.70;99.90;;;;;;5112820;27;20799;-49
2023/01/05 01:33:50;;;;;;;5.17;4.50;;;3.80;99.90;;;;;;5114918;27;20498;-51
2023/01/05 01:36:17;;;;;;;4.40;4.00;;;3.80;99.90;;;;;;5120434;27;21182;-47
2023/01/05 01:38:45;;;;;;;5.70;4.20;;;3.80;99.90;;;;;;5115702;27;20519;-49
2023/01/05 01:41:12;;;;;;;4.60;4.20;;;3.60;99.90;;;;;;5114522;27;20964;-48
2023/01/05 01:43:45;;;;;;;5.77;3.97;;;3.60;99.90;;;;;;5122522;27;20461;-49
2023/01/05 01:46:13;;;;;;;22.20;16.57;;;3.70;99.90;;;;;;5130375;27;20501;-49
2023/01/05 01:48:42;;;;;;;13.90;9.10;;;3.90;99.90;;;;;;5132341;27;20559;-48
2023/01/05 01:51:15;;;;;;;7.63;5.50;;;3.80;99.90;;;;;;5133625;27;21175;-47
2023/01/05 01:53:47;;;;;;;33.60;17.30;;;3.90;99.90;;;;;;5112592;27;20549;-49
2023/01/05 01:56:17;;;;;;;30.27;17.03;;;3.90;99.90;;;;;;5110946;28;20528;-44
2023/01/05 01:58:44;;;;;;;6.20;4.70;;;4.00;99.90;;;;;;5132717;27;20525;-48
2023/01/05 02:01:11;;;;;;;4.90;3.50;;;3.50;99.90;;;;;;5131779;27;20478;-48
2023/01/05 02:03:39;;;;;;;4.50;4.10;;;3.60;99.90;;;;;;5126905;27;20912;-48
2023/01/05 02:06:06;;;;;;;3.80;3.43;;;3.80;99.90;;;;;;5130845;27;20459;-47
2023/01/05 02:08:34;;;;;;;5.17;3.30;;;3.80;99.90;;;;;;5113074;27;21015;-47
2023/01/05 02:11:17;;;;;;;3.43;3.00;;;3.90;99.90;;;;;;5111909;28;20531;-49
2023/01/05 02:13:58;;;;;;;3.60;2.27;;;4.10;99.90;;;;;;5111140;28;20913;-48
2023/01/05 02:16:34;;;;;;;4.43;3.50;;;4.30;99.90;;;;;;5109778;28;20534;-48
2023/01/05 02:19:27;;;;;;;6.67;4.53;;;4.40;99.90;;;;;;5111123;28;20532;-49
2023/01/05 02:22:09;;;;;;;3.80;3.40;;;4.30;99.90;;;;;;5110986;28;20493;-48
2023/01/05 02:25:06;;;;;;;2.20;2.00;;;4.10;99.90;;;;;;5109130;28;20994;-49
2023/01/05 02:27:47;;;;;;;3.20;2.00;;;4.20;99.90;;;;;;5108859;28;20511;-48
2023/01/05 02:30:59;;;;;;;3.60;2.20;;;4.30;99.90;;;;;;5111345;28;20469;-44
2023/01/05 02:33:40;;;;;;;4.23;2.57;;;4.50;99.90;;;;;;5112860;27;20449;-48
2023/01/05 02:36:15;;;;;;;3.00;2.70;;;4.40;99.90;;;;;;5123985;27;20543;-48
2023/01/05 02:38:52;;;;;;;4.40;3.07;;;4.40;99.90;;;;;;5120139;27;20466;-48
2023/01/05 02:41:23;;;;;;;3.03;2.47;;;4.40;99.90;;;;;;5128514;27;20483;-47
2023/01/05 02:43:51;;;;;;;7.40;4.43;;;4.50;99.90;;;;;;5121275;27;20553;-48
2023/01/05 02:46:18;;;;;;;3.97;3.37;;;4.00;99.90;;;;;;5116121;27;20519;-49
2023/01/05 02:48:49;;;;;;;3.53;2.97;;;3.70;99.90;;;;;;5120730;27;21108;-48
2023/01/05 02:51:20;;;;;;;4.13;2.57;;;3.80;99.90;;;;;;5113550;27;20467;-47
2023/01/05 02:53:51;;;;;;;3.80;2.80;;;4.10;99.90;;;;;;5117851;27;20544;-50
2023/01/05 02:56:24;;;;;;;3.70;3.20;;;4.10;99.90;;;;;;5113561;27;21028;-49
2023/01/05 02:58:56;;;;;;;4.50;3.07;;;4.00;99.90;;;;;;5130467;27;20798;-48
2023/01/05 03:01:27;;;;;;;3.27;2.73;;;3.80;99.90;;;;;;5130144;27;20476;-48
2023/01/05 03:03:58;;;;;;;4.13;3.57;;;4.00;99.90;;;;;;5122150;27;20546;-51
2023/01/05 03:06:28;;;;;;;3.40;3.10;;;4.10;99.90;;;;;;5111471;27;20465;-48
2023/01/05 03:08:58;;;;;;;4.80;3.27;;;4.00;99.90;;;;;;5122840;27;20552;-48
2023/01/05 03:14:23;;;;;;;4.13;3.83;;;3.90;99.90;;;;;;5112749;27;20445;-48
2023/01/05 03:16:53;;;;;;;3.70;3.30;;;3.90;99.90;;;;;;5116270;27;20544;-47
2023/01/05 03:19:39;;;;;;;4.60;3.10;;;4.00;99.90;;;;;;5113600;27;20740;-48
2023/01/05 03:36:13;;;;;;;1.17;0.90;;;4.30;99.90;;;;;;5125863;27;21017;-49
2023/01/05 03:38:43;;;;;;;2.83;1.10;;;4.70;99.90;;;;;;5122642;27;20522;-49
2023/01/05 03:41:14;;;;;;;1.93;1.77;;;4.80;99.90;;;;;;5131043;27;20532;-49
2023/01/05 03:43:42;;;;;;;2.00;1.70;;;4.70;99.90;;;;;;5129865;27;20492;-48
2023/01/05 03:46:12;;;;;;;1.50;1.40;;;4.50;99.90;;;;;;5130374;27;20476;-48
2023/01/05 03:48:38;;;;;;;2.03;1.50;;;4.40;99.90;;;;;;5111721;27;20505;-50
2023/01/05 03:51:06;;;;;;;2.27;1.50;;;4.40;99.90;;;;;;5127509;27;20528;-51
2023/01/05 03:53:34;;;;;;;2.03;1.37;;;4.50;99.90;;;;;;5129325;27;20445;-47
2023/01/05 03:56:01;;;;;;;4.83;1.70;;;4.60;99.90;;;;;;5109947;27;20540;-49
2023/01/05 03:58:28;;;;;;;2.20;1.50;;;4.50;99.90;;;;;;5112985;27;20516;-49
2023/01/05 04:00:55;;;;;;;1.73;1.40;;;4.30;99.90;;;;;;5123676;27;20527;-49
2023/01/05 04:03:22;;;;;;;2.37;1.23;;;4.50;99.90;;;;;;5128577;27;20473;-48
2023/01/05 04:05:49;;;;;;;1.77;1.20;;;4.80;99.90;;;;;;5126853;27;20783;-48
2023/01/05 04:08:16;;;;;;;1.40;1.00;;;4.90;99.90;;;;;;5126592;27;20531;-49
2023/01/05 04:10:45;;;;;;;2.10;1.53;;;5.00;99.90;;;;;;5129453;27;20936;-48
2023/01/05 04:13:11;;;;;;;2.80;1.90;;;5.00;99.90;;;;;;5128928;27;20965;-48
2023/01/05 04:15:39;;;;;;;2.70;1.70;;;4.80;99.90;;;;;;5118755;27;21033;-49
2023/01/05 04:18:06;;;;;;;2.10;1.30;;;4.80;99.90;;;;;;5126926;27;20522;-50
2023/01/05 04:20:33;;;;;;;2.20;1.70;;;4.80;99.90;;;;;;5110234;28;20496;-48
2023/01/05 04:23:00;;;;;;;2.87;2.20;;;4.90;99.90;;;;;;5113526;27;20531;-48
2023/01/05 04:25:27;;;;;;;2.40;2.20;;;4.80;99.90;;;;;;5122945;27;20997;-49
2023/01/05 04:27:55;;;;;;;2.63;2.30;;;4.60;99.90;;;;;;5118236;28;21017;-48
2023/01/05 04:30:22;;;;;;;2.63;1.33;;;4.40;99.90;;;;;;5109724;28;20473;-49
2023/01/05 04:32:49;;;;;;;1.63;1.53;;;4.50;99.90;;;;;;5109729;28;20441;-49
2023/01/05 04:35:16;;;;;;;2.00;1.40;;;4.80;99.90;;;;;;5108365;28;20551;-48
2023/01/05 04:37:43;;;;;;;3.27;1.80;;;4.90;99.90;;;;;;5110314;28;20450;-47
2023/01/05 04:40:10;;;;;;;2.70;2.27;;;4.90;99.90;;;;;;5129281;27;20472;-50
2023/01/05 04:42:37;;;;;;;3.13;2.00;;;4.60;99.90;;;;;;5125729;27;20473;-48
2023/01/05 04:45:06;;;;;;;5.37;2.10;;;4.70;99.90;;;;;;5120360;27;20549;-49
2023/01/05 04:47:33;;;;;;;1.87;1.53;;;4.80;99.90;;;;;;5115064;27;20441;-48
2023/01/05 04:50:00;;;;;;;2.47;2.10;;;4.90;99.90;;;;;;5128212;27;20518;-51
2023/01/05 04:52:27;;;;;;;3.07;1.80;;;4.60;99.90;;;;;;5112444;28;20525;-49
2023/01/05 04:54:54;;;;;;;3.97;2.40;;;4.70;99.90;;;;;;5119528;27;20511;-48
2023/01/05 04:57:21;;;;;;;2.00;1.80;;;4.90;99.90;;;;;;5122098;27;20869;-48
2023/01/05 04:59:47;;;;;;;2.47;1.80;;;5.00;99.90;;;;;;5126643;27;20524;-48
2023/01/05 05:02:16;;;;;;;2.10;1.90;;;4.90;99.90;;;;;;5113752;27;20476;-44
2023/01/05 05:04:43;;;;;;;1.93;1.50;;;4.90;99.90;;;;;;5121487;27;21150;-47
2023/01/05 05:07:10;;;;;;;2.20;1.20;;;4.80;99.90;;;;;;5122968;27;20444;-49
2023/01/05 05:09:37;;;;;;;1.17;1.07;;;4.70;99.90;;;;;;5123706;27;20959;-48
2023/01/05 05:12:04;;;;;;;2.57;1.53;;;4.70;99.90;;;;;;5115162;27;20474;-49
2023/01/05 05:14:31;;;;;;;3.00;2.10;;;4.80;99.90;;;;;;5133261;27;20555;-48
2023/01/05 05:16:57;;;;;;;2.10;1.50;;;4.80;99.90;;;;;;5132875;27;20683;-48
2023/01/05 05:19:26;;;;;;;3.73;1.93;;;4.70;99.90;;;;;;5129403;27;20518;-47
2023/01/05 05:21:53;;;;;;;4.10;3.27;;;4.60;99.90;;;;;;5133711;27;20451;-48
2023/01/05 05:24:19;;;;;;;4.03;3.20;;;4.40;99.90;;;;;;5119660;27;20504;-48
2023/01/05 05:26:46;;;;;;;5.63;4.03;;;4.30;99.90;;;;;;5131207;27;20544;-49
2023/01/05 05:29:13;;;;;;;4.03;3.63;;;4.30;99.90;;;;;;5121856;27;20475;-47
2023/01/05 05:31:40;;;;;;;3.90;3.50;;;4.50;99.90;;;;;;5123539;27;20537;-48
2023/01/05 05:34:07;;;;;;;4.80;3.23;;;4.40;99.90;;;;;;5118914;27;21055;-48
2023/01/05 05:36:36;;;;;;;4.47;3.37;;;4.30;99.90;;;;;;5120619;27;20455;-47
2023/01/05 05:39:04;;;;;;;3.93;3.47;;;4.30;99.90;;;;;;5121423;27;20440;-48
2023/01/05 05:41:31;;;;;;;5.30;3.73;;;4.20;99.90;;;;;;5121542;27;20581;-48
2023/01/05 05:43:59;;;;;;;4.00;3.60;;;4.20;99.90;;;;;;5120999;27;20527;-52
2023/01/05 05:46:27;;;;;;;3.70;3.40;;;4.20;99.90;;;;;;5120815;27;20965;-48
2023/01/05 05:48:54;;;;;;;4.93;3.60;;;4.20;99.90;;;;;;5120284;27;21008;-51
2023/01/05 05:51:21;;;;;;;5.67;3.00;;;4.30;99.90;;;;;;5119142;27;21325;-48
2023/01/05 05:53:49;;;;;;;3.17;2.80;;;4.50;99.90;;;;;;5118836;27;20547;-47
2023/01/05 05:56:16;;;;;;;6.63;3.60;;;4.50;99.90;;;;;;5112157;27;20544;-48
2023/01/05 05:58:43;;;;;;;4.20;3.67;;;4.60;99.90;;;;;;5128608;27;20539;-47
2023/01/05 06:01:11;;;;;;;6.43;4.07;;;4.50;99.90;;;;;;5114398;27;20836;-48
2023/01/05 06:03:38;;;;;;;4.83;3.90;;;4.40;99.90;;;;;;5112085;27;20940;-47
2023/01/05 06:06:05;;;;;;;5.10;3.50;;;4.40;99.90;;;;;;5121825;27;20524;-49
2023/01/05 06:08:32;;;;;;;5.60;3.70;;;4.20;99.90;;;;;;5114163;27;20497;-48
2023/01/05 06:11:01;;;;;;;4.50;3.50;;;4.20;99.90;;;;;;5122134;27;20473;-48
2023/01/05 06:13:27;;;;;;;3.87;3.27;;;4.30;99.90;;;;;;5120174;27;20529;-48
2023/01/05 06:15:54;;;;;;;3.70;3.30;;;4.50;99.90;;;;;;5127370;27;21004;-48
2023/01/05 06:18:21;;;;;;;3.87;3.00;;;4.50;99.90;;;;;;5131599;27;20613;-49
2023/01/05 06:20:48;;;;;;;4.27;3.67;;;4.60;99.90;;;;;;5124894;27;20536;-48
2023/01/05 06:23:15;;;;;;;5.03;3.10;;;4.80;99.90;;;;;;5122684;27;20453;-46
2023/01/05 06:25:42;;;;;;;4.83;2.73;;;4.80;99.90;;;;;;5133062;27;20551;-50
2023/01/05 06:28:10;;;;;;;3.87;2.80;;;5.00;99.90;;;;;;5132791;27;20911;-50
2023/01/05 06:30:37;;;;;;;4.20;3.80;;;5.00;99.90;;;;;;5132498;27;20480;-48
2023/01/05 06:33:04;;;;;;;7.30;4.50;;;4.70;99.90;;;;;;5131707;27;20472;-47
2023/01/05 06:35:31;;;;;;;5.40;4.50;;;4.60;99.90;;;;;;5132472;27;20547;-48
2023/01/05 06:37:58;;;;;;;5.47;4.97;;;4.20;99.90;;;;;;5133167;27;20476;-48
2023/01/05 06:40:25;;;;;;;6.17;4.80;;;4.10;99.90;;;;;;5132523;27;20559;-50
2023/01/05 06:42:52;;;;;;;6.37;4.60;;;4.20;99.90;;;;;;5132388;27;20529;-44
2023/01/05 06:45:20;;;;;;;4.03;3.63;;;4.30;99.90;;;;;;5132641;27;20500;-48
2023/01/05 06:47:47;;;;;;;3.70;2.60;;;4.50;99.90;;;;;;5132530;27;20467;-48
2023/01/05 06:50:14;;;;;;;4.57;3.47;;;4.60;99.90;;;;;;5132014;27;20993;-45
2023/01/05 06:52:41;;;;;;;4.40;2.80;;;4.60;99.90;;;;;;5132893;27;20448;-48
2023/01/05 06:55:09;;;;;;;2.43;2.23;;;4.70;99.90;;;;;;5131840;27;20548;-50
2023/01/05 06:57:37;;;;;;;3.30;2.97;;;4.80;99.90;;;;;;5131287;27;20523;-49
2023/01/05 07:00:06;;;;;;;5.90;4.70;;;4.70;99.90;;;;;;5131925;27;20888;-48
2023/01/05 07:02:34;;;;;;;5.90;4.73;;;4.40;99.90;;;;;;5130142;27;20445;-49
2023/01/05 07:05:01;;;;;;;4.50;4.10;;;4.50;99.90;;;;;;5131289;27;20898;-48
2023/01/05 07:07:28;;;;;;;5.87;4.20;;;4.70;99.90;;;;;;5131891;27;20855;-48
2023/01/05 07:09:55;;;;;;;6.10;5.10;;;4.70;99.90;;;;;;5132196;27;20568;-48
2023/01/05 07:12:22;;;;;;;4.00;3.57;;;4.40;99.90;;;;;;5131740;27;20544;-48
2023/01/05 07:14:49;;;;;;;4.90;3.97;;;4.40;99.90;;;;;;5130980;27;20900;-48
2023/01/05 07:17:17;;;;;;;8.73;7.57;;;4.70;99.90;;;;;;5130674;27;20533;-47
2023/01/05 07:19:45;;;;;;;6.37;5.30;;;4.70;99.90;;;;;;5130418;27;20522;-50
2023/01/05 07:22:12;;;;;;;5.27;4.13;;;4.40;99.90;;;;;;5130315;27;20446;-47
2023/01/05 07:24:39;;;;;;;5.37;4.23;;;4.30;99.90;;;;;;5129199;27;20469;-49
2023/01/05 07:27:06;;;;;;;2.87;2.67;;;4.50;99.90;;;;;;5129746;27;20478;-49
2023/01/05 07:29:33;;;;;;;3.23;2.93;;;4.60;99.90;;;;;;5129974;27;20476;-49
2023/01/05 07:32:00;;;;;;;3.40;3.10;;;4.60;99.90;;;;;;5131625;27;20529;-48
2023/01/05 07:34:27;;;;;;;5.93;5.33;;;4.70;99.90;;;;;;5130470;27;20493;-46
2023/01/05 07:36:55;;;;;;;6.50;4.50;;;4.70;99.90;;;;;;5131648;27;20472;-50
2023/01/05 07:39:22;;;;;;;7.53;5.53;;;4.50;99.90;;;;;;5131214;27;20526;-49
2023/01/05 07:41:49;;;;;;;6.10;5.37;;;4.40;99.90;;;;;;5131525;27;20473;-47
2023/01/05 07:44:17;;;;;;;7.10;6.00;;;4.50;99.90;;;;;;5130520;27;20940;-46
2023/01/05 07:46:44;;;;;;;6.00;5.37;;;4.60;99.90;;;;;;5131598;27;20444;-47
2023/01/05 07:49:10;;;;;;;5.60;5.10;;;4.70;99.90;;;;;;5131417;27;20580;-47
2023/01/05 07:51:37;;;;;;;8.90;7.10;;;4.30;99.90;;;;;;5130865;27;20478;-48
2023/01/05 07:54:06;;;;;;;7.20;5.77;;;4.20;99.90;;;;;;5130712;27;20538;-47
2023/01/05 07:56:33;;;;;;;6.17;5.10;;;4.40;99.90;;;;;;5129744;27;20528;-48
2023/01/05 07:58:59;;;;;;;6.20;5.30;;;4.40;99.90;;;;;;5131576;27;20523;-50
2023/01/05 08:01:26;;;;;;;5.57;5.07;;;4.30;99.90;;;;;;5130742;27;20881;-48
2023/01/05 08:03:53;;;;;;;6.80;6.10;;;4.40;99.90;;;;;;5130421;27;20563;-48
2023/01/05 08:06:21;;;;;;;7.00;6.30;;;4.40;99.90;;;;;;5131245;27;20520;-48
2023/01/05 08:08:48;;;;;;;7.60;6.20;;;4.40;99.90;;;;;;5131411;27;20527;-47
2023/01/05 08:11:19;;;;;;;11.70;7.23;;;4.50;99.90;;;;;;5131005;27;20524;-45
2023/01/05 08:14:02;;;;;;;7.47;6.70;;;4.50;99.90;;;;;;5130090;27;20470;-48
2023/01/05 08:16:30;;;;;;;9.87;6.80;;;4.60;99.90;;;;;;5130883;27;20496;-49
2023/01/05 08:18:58;;;;;;;6.67;6.07;;;4.60;99.90;;;;;;5131231;27;20476;-47
2023/01/05 08:21:25;;;;;;;9.10;7.70;;;4.60;99.90;;;;;;5130628;27;20531;-51
2023/01/05 08:23:53;;;;;;;9.40;8.40;;;4.50;99.90;;;;;;5129366;27;20460;-47
2023/01/05 08:26:23;;;;;;;10.87;8.73;;;4.30;99.90;;;;;;5130423;27;20867;-47
2023/01/05 08:28:50;;;;;;;11.83;10.13;;;4.40;99.90;;;;;;5130301;27;20531;-49
2023/01/05 08:31:19;;;;;;;7.00;5.70;;;4.60;99.90;;;;;;5130636;27;20559;-48
2023/01/05 08:33:46;;;;;;;7.20;5.97;;;4.60;99.90;;;;;;5130202;27;20508;-48
2023/01/05 08:36:15;;;;;;;13.40;9.20;;;4.70;99.90;;;;;;5132267;27;20438;-48
2023/01/05 08:38:47;;;;;;;18.80;11.33;;;4.80;99.90;;;;;;5131146;27;20476;-49
2023/01/05 08:41:15;;;;;;;9.20;8.17;;;4.90;99.90;;;;;;5131384;27;20444;-51
2023/01/05 08:43:44;;;;;;;28.40;13.77;;;4.90;99.90;;;;;;5130336;27;20556;-48
2023/01/05 08:46:10;;;;;;;13.30;8.63;;;5.00;99.90;;;;;;5130908;27;20533;-50
2023/01/05 08:48:37;;;;;;;10.03;7.53;;;5.00;99.90;;;;;;5130309;27;20946;-49
2023/01/05 08:51:06;;;;;;;7.73;6.80;;;4.80;99.90;;;;;;5131008;27;20521;-48
2023/01/05 08:53:34;;;;;;;8.40;6.97;;;5.00;99.90;;;;;;5129495;27;20820;-48
2023/01/05 08:56:01;;;;;;;7.63;6.63;;;4.90;99.90;;;;;;5129375;27;20830;-48
2023/01/05 08:58:28;;;;;;;12.10;10.00;;;4.90;99.90;;;;;;5130153;27;20480;-49
2023/01/05 09:00:56;;;;;;;10.67;8.60;;;4.90;99.90;;;;;;5130556;27;20520;-48
2023/01/05 09:03:23;;;;;;;10.87;8.37;;;4.90;99.90;;;;;;5129390;27;20441;-47
2023/01/05 09:05:53;;;;;;;9.23;6.87;;;4.90;99.90;;;;;;5130322;27;20483;-48
2023/01/05 09:08:20;;;;;;;9.53;6.77;;;5.00;99.90;;;;;;5130698;27;20455;-48
2023/01/05 09:10:47;;;;;;;14.20;12.80;;;5.00;99.90;;;;;;5130660;27;20509;-48
2023/01/05 09:13:14;;;;;;;10.23;8.10;;;5.10;99.90;;;;;;5129494;27;20637;-47
2023/01/05 09:15:41;;;;;;;9.17;7.17;;;5.30;99.90;;;;;;5130276;27;20502;-48
2023/01/05 09:18:09;;;;;;;8.20;6.87;;;5.10;99.90;;;;;;5130431;27;20531;-48
2023/01/05 09:20:36;;;;;;;8.70;7.90;;;5.00;99.90;;;;;;5130193;27;20465;-48
2023/01/05 09:23:03;;;;;;;9.27;7.40;;;5.20;99.90;;;;;;5129776;27;20553;-49
2023/01/05 09:25:30;;;;;;;8.30;7.50;;;5.20;99.90;;;;;;5128404;27;20494;-47
2023/01/05 09:27:57;;;;;;;9.10;7.47;;;5.20;99.90;;;;;;5133557;27;20519;-48
2023/01/05 09:30:24;;;;;;;7.20;6.60;;;5.10;99.90;;;;;;5133698;27;20784;-48
2023/01/05 09:32:50;;;;;;;10.70;7.57;;;5.40;99.90;;;;;;5133897;27;20472;-48
2023/01/05 09:35:19;;;;;;;7.73;6.87;;;5.50;99.90;;;;;;5133265;27;20548;-48
2023/01/05 09:37:46;;;;;;;5.90;5.27;;;5.50;99.90;;;;;;5134312;27;20440;-50
2023/01/05 09:40:13;;;;;;;5.57;4.97;;;5.50;99.90;;;;;;5134492;27;20531;-48
2023/01/05 09:42:46;;;;;;;6.40;5.47;;;5.60;99.90;;;;;;5134097;27;20441;-50
2023/01/05 09:45:21;;;;;;;5.13;4.63;;;5.70;99.90;;;;;;5133126;27;20881;-48
2023/01/05 09:47:49;;;;;;;7.70;5.63;;;5.80;99.90;;;;;;5133928;27;20531;-48
2023/01/05 09:50:22;;;;;;;11.03;8.30;;;5.80;99.90;;;;;;5133550;27;20511;-48
2023/01/05 09:52:53;;;;;;;7.50;6.60;;;5.90;99.90;;;;;;5133800;27;20582;-48
2023/01/05 09:55:21;;;;;;;10.70;5.77;;;5.90;99.90;;;;;;5131515;27;20536;-48
2023/01/05 09:57:53;;;;;;;7.60;6.87;;;5.80;99.90;;;;;;5133951;27;20524;-48
2023/01/05 10:00:22;;;;;;;8.10;6.43;;;5.70;99.90;;;;;;5133384;27;20466;-48
2023/01/05 10:02:52;;;;;;;9.87;7.30;;;5.70;99.90;;;;;;5133660;27;20449;-50
2023/01/05 10:05:21;;;;;;;6.83;5.23;;;5.80;99.90;;;;;;5133035;27;20496;-48
2023/01/05 10:07:51;;;;;;;6.63;4.97;;;5.90;99.90;;;;;;5133295;27;20539;-50
2023/01/05 10:10:27;;;;;;;7.53;6.30;;;5.80;99.90;;;;;;5133204;27;20556;-47
2023/01/05 10:13:01;;;;;;;8.20;5.77;;;5.60;99.90;;;;;;5132654;27;20817;-48
2023/01/05 10:15:33;;;;;;;5.50;4.00;;;5.80;99.90;;;;;;5133103;27;20452;-48
2023/01/05 10:18:08;;;;;;;6.73;5.53;;;6.10;99.90;;;;;;5133385;27;20965;-50
2023/01/05 10:20:45;;;;;;;7.30;6.03;;;6.20;99.90;;;;;;5132780;27;20532;-50
2023/01/05 10:23:20;;;;;;;6.07;4.97;;;6.20;99.90;;;;;;5132031;27;20506;-49
2023/01/05 10:25:52;;;;;;;31.07;23.03;;;6.20;99.90;;;;;;5132995;27;20864;-48
2023/01/05 10:28:36;;;;;;;17.30;12.67;;;6.10;99.90;;;;;;5132098;27;20926;-48
2023/01/05 10:31:08;;;;;;;7.93;6.47;;;6.10;99.90;;;;;;5132795;27;20505;-49
2023/01/05 10:33:48;;;;;;;6.87;5.80;;;6.20;99.90;;;;;;5132231;27;20878;-48
2023/01/05 10:36:31;;;;;;;9.63;7.97;;;6.20;99.90;;;;;;5132362;27;20953;-46
2023/01/05 10:39:05;;;;;;;5.90;5.00;;;6.10;99.90;;;;;;5132987;27;20883;-48
2023/01/05 10:41:48;;;;;;;10.50;5.17;;;6.10;99.90;;;;;;5132422;27;20469;-49
2023/01/05 10:45:01;;;;;;;12.40;10.60;;;6.30;99.90;;;;;;5131662;27;20544;-45
2023/01/05 10:47:31;;;;;;;4.67;4.23;;;6.40;99.90;;;;;;5096095;27;20468;-48
2023/01/05 10:50:00;;;;;;;4.30;3.90;;;6.40;99.90;;;;;;5133017;27;20512;-48
2023/01/05 10:52:30;;;;;;;4.10;3.47;;;6.40;99.90;;;;;;5132410;27;20506;-48
2023/01/05 10:54:59;;;;;;;5.20;3.93;;;6.40;99.90;;;;;;5131874;27;20549;-49
2023/01/05 10:57:34;;;;;;;4.63;3.83;;;6.40;99.90;;;;;;5130316;27;20473;-48
2023/01/05 11:00:04;;;;;;;5.00;3.90;;;6.40;99.90;;;;;;5132807;27;20525;-48
2023/01/05 11:02:35;;;;;;;5.00;4.30;;;6.40;99.90;;;;;;5132263;27;20938;-49
2023/01/05 11:05:05;;;;;;;8.47;6.00;;;6.40;99.90;;;;;;5132192;27;20566;-48
2023/01/05 11:07:48;;;;;;;9.37;6.00;;;6.50;99.90;;;;;;5124799;27;20519;-48
2023/01/05 11:10:24;;;;;;;4.90;4.10;;;6.50;99.90;;;;;;5119824;27;20736;-44
2023/01/05 11:12:54;;;;;;;4.90;4.33;;;6.50;99.90;;;;;;5120249;27;20469;-45
2023/01/05 11:15:21;;;;;;;6.57;5.97;;;6.50;99.90;;;;;;5118915;27;20530;-48
2023/01/05 11:17:48;;;;;;;7.60;5.57;;;6.50;99.90;;;;;;5120857;27;20871;-48
2023/01/05 11:20:17;;;;;;;5.10;3.97;;;6.50;99.90;;;;;;5120465;27;20454;-48
2023/01/05 11:22:47;;;;;;;5.00;4.50;;;6.60;99.90;;;;;;5119487;27;20522;-48
2023/01/05 11:25:27;;;;;;;5.93;4.67;;;6.60;99.90;;;;;;5116082;27;20503;-47
2023/01/05 11:28:11;;;;;;;26.80;24.10;;;6.60;99.90;;;;;;5110225;28;20467;-47
2023/01/05 11:30:41;;;;;;;18.73;16.80;;;6.60;99.90;;;;;;5109212;28;20514;-48
2023/01/05 11:33:24;;;;;;;23.03;19.23;;;6.60;99.90;;;;;;5107666;28;20467;-48
2023/01/05 11:35:51;;;;;;;16.27;14.67;;;6.60;99.90;;;;;;5118473;27;20526;-49
2023/01/05 11:38:24;;;;;;;9.93;6.80;;;6.70;99.90;;;;;;5117704;27;20513;-50
2023/01/05 11:40:51;;;;;;;60.53;44.97;;;6.60;99.90;;;;;;5109533;28;20439;-47
2023/01/05 11:43:21;;;;;;;8.17;7.20;;;6.60;99.90;;;;;;5108476;28;20529;-50
2023/01/05 11:45:51;;;;;;;10.63;6.00;;;6.70;99.90;;;;;;5118192;27;20449;-48
2023/01/05 11:48:21;;;;;;;15.73;10.03;;;6.70;99.90;;;;;;5119946;27;20450;-49
2023/01/05 11:50:49;;;;;;;10.13;6.37;;;6.80;99.90;;;;;;5119220;27;20957;-49
2023/01/05 11:53:35;;;;;;;4.10;3.70;;;6.80;99.90;;;;;;5130117;27;20529;-49
2023/01/05 11:56:04;;;;;;;18.80;13.73;;;6.80;99.90;;;;;;5129594;27;20448;-48
2023/01/05 11:58:41;;;;;;;13.90;9.17;;;6.90;99.90;;;;;;5130266;27;20517;-48
2023/01/05 12:01:58;;;;;;;58.20;35.37;;;6.90;99.90;;;;;;5131241;27;20439;-48
2023/01/05 12:04:34;;;;;;;6.00;5.40;;;6.90;99.90;;;;;;5130178;27;20522;-47
2023/01/05 12:07:20;;;;;;;7.27;5.30;;;7.00;99.90;;;;;;5131212;27;20462;-49
2023/01/05 12:09:54;;;;;;;6.70;4.70;;;7.00;99.90;;;;;;5131028;27;20469;-49
2023/01/05 12:12:38;;;;;;;30.00;16.17;;;7.00;99.90;;;;;;5129533;27;20565;-50
2023/01/05 12:15:37;;;;;;;6.67;5.83;;;7.00;99.90;;;;;;5128745;27;20496;-48
2023/01/05 12:18:20;;;;;;;7.87;5.70;;;6.90;99.90;;;;;;5124180;27;20522;-47
2023/01/05 12:20:56;;;;;;;24.83;15.87;;;7.00;99.90;;;;;;5129818;27;20906;-48
2023/01/05 12:23:52;;;;;;;8.60;6.37;;;7.00;99.90;;;;;;5127261;27;20498;-50
2023/01/05 12:26:26;;;;;;;43.83;34.77;;;7.00;99.90;;;;;;5129795;27;20521;-48
2023/01/05 12:29:14;;;;;;;36.97;27.63;;;6.90;99.90;;;;;;5130185;27;20465;-50
2023/01/05 12:31:57;;;;;;;20.03;14.83;;;6.90;99.90;;;;;;5130684;27;21057;-48
2023/01/05 12:34:53;;;;;;;15.17;12.80;;;6.90;99.90;;;;;;5129660;27;20544;-48
2023/01/05 12:37:30;;;;;;;5.40;4.90;;;6.80;99.90;;;;;;5130638;27;20474;-48
2023/01/05 12:40:27;;;;;;;8.60;6.37;;;6.80;99.90;;;;;;5130929;27;20437;-49
2023/01/05 12:43:05;;;;;;;8.23;6.17;;;6.80;99.90;;;;;;5130760;27;20466;-47
2023/01/05 12:46:00;;;;;;;7.13;6.37;;;6.90;99.90;;;;;;5130149;27;20458;-48
2023/01/05 12:48:31;;;;;;;6.80;6.20;;;6.90;99.90;;;;;;5130680;27;20533;-48
2023/01/05 12:51:08;;;;;;;9.93;8.80;;;6.80;99.90;;;;;;5130815;27;20509;-49
2023/01/05 12:53:46;;;;;;;8.80;7.90;;;6.90;99.90;;;;;;5129753;27;20433;-48
2023/01/05 12:56:21;;;;;;;6.57;5.90;;;7.00;99.90;;;;;;5128929;27;20517;-48
2023/01/05 12:59:09;;;;;;;5.53;4.90;;;7.10;99.90;;;;;;5130753;27;20524;-48
2023/01/05 13:01:41;;;;;;;10.13;8.10;;;7.10;99.90;;;;;;5133996;27;20524;-50
2023/01/05 13:04:19;;;;;;;10.50;9.20;;;7.00;99.90;;;;;;5134047;27;20493;-48
2023/01/05 13:06:51;;;;;;;5.33;4.83;;;7.00;99.90;;;;;;5134326;27;20872;-49
2023/01/05 13:09:22;;;;;;;6.73;5.90;;;7.00;99.90;;;;;;5134590;27;20477;-48
2023/01/05 13:11:54;;;;;;;8.50;6.83;;;7.20;99.90;;;;;;5134490;27;20917;-51
2023/01/05 13:14:27;;;;;;;7.63;5.90;;;7.00;99.90;;;;;;5133565;27;20598;-49
2023/01/05 13:16:59;;;;;;;6.63;6.00;;;7.00;99.90;;;;;;5134790;27;20520;-48
2023/01/05 13:19:33;;;;;;;7.00;6.40;;;7.00;99.90;;;;;;5134318;27;20524;-50
2023/01/05 13:22:03;;;;;;;5.43;4.53;;;6.90;99.90;;;;;;5134471;27;20793;-48
2023/01/05 13:24:35;;;;;;;11.80;10.00;;;7.10;99.90;;;;;;5132014;27;20489;-47
2023/01/05 13:27:03;;;;;;;9.50;8.00;;;7.10;99.90;;;;;;5132870;27;20538;-48
2023/01/05 13:29:35;;;;;;;8.40;5.97;;;7.00;99.90;;;;;;5134266;27;20522;-49
2023/01/05 13:32:33;;;;;;;7.47;6.77;;;7.00;99.90;;;;;;5134246;27;20480;-48
2023/01/05 13:35:18;;;;;;;8.03;7.03;;;6.90;99.90;;;;;;5133087;27;20537;-51
2023/01/05 13:38:24;;;;;;;20.23;14.43;;;6.90;99.90;;;;;;5134063;27;20934;-49
2023/01/05 13:41:16;;;;;;;36.23;25.23;;;7.00;99.90;;;;;;5134419;27;20514;-50
2023/01/05 13:44:20;;;;;;;6.20;4.30;;;7.00;99.90;;;;;;5133276;27;21250;-50